createdAt,value
2018-06-13T00:01:29.310Z,80.67
2018-06-13T00:04:03.961Z,81.16
2018-06-13T00:06:38.991Z,81.23
2018-06-13T00:09:11.538Z,81.44
2018-06-13T00:11:46.376Z,81.78
2018-06-13T00:14:19.931Z,81.78
2018-06-13T00:16:53.936Z,81.91
2018-06-13T00:19:27.184Z,82.21
2018-06-13T00:22:01.755Z,82.39
2018-06-13T00:24:37.112Z,82.73
2018-06-13T00:27:10.308Z,82.89
2018-06-13T00:29:42.997Z,82.57
2018-06-13T00:32:16.900Z,82.42
2018-06-13T00:34:52.270Z,81.89
2018-06-13T00:37:25.643Z,81.67
2018-06-13T00:39:58.656Z,81.51
2018-06-13T00:42:31.477Z,81.40
2018-06-13T00:45:06.192Z,81.41
2018-06-13T00:47:38.724Z,81.40
2018-06-13T00:50:12.840Z,81.64
2018-06-13T00:52:45.907Z,81.93
2018-06-13T00:55:19.980Z,82.05
2018-06-13T00:57:52.549Z,81.85
2018-06-13T01:00:25.740Z,81.98
2018-06-13T01:02:58.674Z,81.99
2018-06-13T01:05:32.096Z,82.22
2018-06-13T01:08:06.703Z,82.24
2018-06-13T01:10:39.312Z,82.28
2018-06-13T01:13:13.076Z,82.53
2018-06-13T01:15:47.613Z,82.67
2018-06-13T01:18:22.396Z,82.67
2018-06-13T01:20:55.575Z,82.47
2018-06-13T01:23:29.289Z,82.41
2018-06-13T01:26:03.208Z,82.24
2018-06-13T01:28:38.901Z,82.05
2018-06-13T01:31:13.293Z,81.94
2018-06-13T01:33:46.791Z,81.53
2018-06-13T01:36:29.288Z,81.47
2018-06-13T01:39:07.404Z,81.55
2018-06-13T01:41:41.417Z,81.23
2018-06-13T01:44:14.886Z,81.23
2018-06-13T01:46:48.137Z,81.13
2018-06-13T01:49:20.633Z,81.12
2018-06-13T01:51:54.922Z,81.04
2018-06-13T01:54:30.774Z,80.94
2018-06-13T01:57:03.800Z,80.88
2018-06-13T01:59:37.586Z,81.07
2018-06-13T02:02:10.372Z,81.05
2018-06-13T02:04:43.561Z,80.99
2018-06-13T02:07:16.383Z,80.86
2018-06-13T02:09:48.884Z,80.88
2018-06-13T02:12:21.425Z,80.88
2018-06-13T02:14:54.458Z,80.71
2018-06-13T02:17:26.983Z,80.71
2018-06-13T02:20:01.446Z,80.89
2018-06-13T02:22:34.255Z,81.08
2018-06-13T02:25:06.886Z,81.18
2018-06-13T02:27:39.509Z,81.03
2018-06-13T02:30:13.949Z,80.96
2018-06-13T02:32:46.348Z,80.97
2018-06-13T02:35:18.990Z,81.05
2018-06-13T02:37:54.874Z,80.91
2018-06-13T02:40:27.935Z,81.04
2018-06-13T02:43:00.449Z,81.01
2018-06-13T02:45:33.209Z,80.89
2018-06-13T02:48:06.041Z,80.76
2018-06-13T02:50:39.510Z,80.31
2018-06-13T02:53:12.335Z,79.79
2018-06-13T02:55:52.919Z,78.85
2018-06-13T02:58:25.522Z,78.72
2018-06-13T03:00:58.573Z,79.10
2018-06-13T03:03:32.772Z,79.38
2018-06-13T03:06:06.320Z,79.56
2018-06-13T03:08:39.325Z,79.43
2018-06-13T03:11:11.809Z,79.61
2018-06-13T03:13:44.464Z,79.93
2018-06-13T03:16:17.269Z,80.10
2018-06-13T03:18:49.796Z,80.13
2018-06-13T03:21:22.197Z,80.04
2018-06-13T03:23:54.956Z,78.90
2018-06-13T03:26:34.548Z,78.75
2018-06-13T03:29:07.700Z,78.97
2018-06-13T03:31:40.524Z,79.16
2018-06-13T03:34:12.989Z,78.42
2018-06-13T03:36:45.733Z,78.36
2018-06-13T03:39:19.086Z,78.68
2018-06-13T03:41:51.815Z,79.05
2018-06-13T03:44:24.382Z,78.96
2018-06-13T03:46:57.162Z,79.10
2018-06-13T03:49:29.763Z,79.32
2018-06-13T03:52:02.886Z,79.32
2018-06-13T03:54:35.921Z,78.67
2018-06-13T03:57:08.559Z,78.63
2018-06-13T03:59:41.356Z,78.66
2018-06-13T04:02:14.564Z,78.62
2018-06-13T04:04:47.330Z,78.24
2018-06-13T04:07:20.514Z,78.09
2018-06-13T04:09:53.701Z,78.58
2018-06-13T04:12:26.305Z,78.63
2018-06-13T04:14:59.109Z,78.48
2018-06-13T04:17:33.413Z,78.18
2018-06-13T04:20:07.177Z,78.40
2018-06-13T04:22:39.684Z,78.48
2018-06-13T04:25:12.579Z,78.49
2018-06-13T04:27:47.320Z,78.13
2018-06-13T04:30:19.920Z,77.68
2018-06-13T04:32:52.614Z,77.87
2018-06-13T04:35:25.201Z,78.16
2018-06-13T04:37:57.721Z,77.81
2018-06-13T04:40:30.303Z,77.64
2018-06-13T04:43:04.899Z,77.74
2018-06-13T04:45:37.507Z,77.62
2018-06-13T04:48:10.996Z,77.61
2018-06-13T04:50:43.805Z,77.66
2018-06-13T04:53:16.346Z,77.61
2018-06-13T04:55:50.393Z,77.46
2018-06-13T04:58:27.090Z,77.43
2018-06-13T05:00:59.818Z,77.30
2018-06-13T05:03:35.003Z,77.47
2018-06-13T05:06:09.352Z,76.47
2018-06-13T05:08:42.941Z,76.29
2018-06-13T05:11:15.779Z,76.50
2018-06-13T05:13:48.846Z,75.91
2018-06-13T05:16:22.077Z,75.13
2018-06-13T05:18:55.135Z,74.51
2018-06-13T05:21:29.058Z,74.41
2018-06-13T05:24:03.471Z,73.96
2018-06-13T05:26:35.916Z,74.22
2018-06-13T05:29:08.960Z,74.60
2018-06-13T05:31:41.485Z,74.03
2018-06-13T05:34:15.029Z,73.60
2018-06-13T05:36:48.103Z,73.77
2018-06-13T05:39:22.780Z,73.75
2018-06-13T05:41:56.256Z,73.68
2018-06-13T05:44:29.919Z,73.02
2018-06-13T05:47:02.493Z,72.49
2018-06-13T05:49:34.946Z,71.75
2018-06-13T05:52:08.404Z,71.84
2018-06-13T05:54:42.316Z,71.23
2018-06-13T05:57:14.865Z,71.60
2018-06-13T05:59:47.633Z,71.92
2018-06-13T06:02:20.621Z,71.55
2018-06-13T06:04:53.195Z,71.42
2018-06-13T06:07:26.660Z,71.04
2018-06-13T06:10:00.545Z,70.60
2018-06-13T06:12:33.176Z,70.71
2018-06-13T06:15:08.167Z,70.07
2018-06-13T06:17:42.197Z,70.49
2018-06-13T06:20:17.142Z,69.37
2018-06-13T06:22:50.024Z,68.30
2018-06-13T06:25:24.243Z,69.07
2018-06-13T06:27:58.357Z,68.85
2018-06-13T06:30:31.188Z,67.42
2018-06-13T06:33:05.546Z,65.66
2018-06-13T06:35:38.280Z,64.99
2018-06-13T06:38:14.119Z,65.67
2018-06-13T06:40:49.516Z,65.64
2018-06-13T06:43:22.868Z,64.90
2018-06-13T06:45:57.231Z,64.69
2018-06-13T06:48:34.477Z,63.98
2018-06-13T06:51:07.064Z,63.36
2018-06-13T06:53:40.180Z,63.47
2018-06-13T06:56:13.425Z,62.53
2018-06-13T06:58:46.048Z,62.34
2018-06-13T07:01:18.740Z,62.97
2018-06-13T07:03:54.818Z,62.74
2018-06-13T07:06:27.833Z,60.86
2018-06-13T07:09:04.423Z,62.34
2018-06-13T07:11:37.670Z,61.37
2018-06-13T07:14:11.068Z,61.26
2018-06-13T07:16:44.096Z,61.37
2018-06-13T07:19:17.166Z,61.35
2018-06-13T07:21:50.045Z,60.30
2018-06-13T07:24:22.870Z,60.89
2018-06-13T07:26:58.288Z,59.92
2018-06-13T07:29:35.732Z,59.78
2018-06-13T07:32:09.707Z,58.50
2018-06-13T07:34:44.230Z,59.08
2018-06-13T07:37:17.007Z,59.97
2018-06-13T07:39:49.545Z,59.16
2018-06-13T07:42:22.405Z,57.84
2018-06-13T07:44:57.068Z,58.53
2018-06-13T07:47:30.668Z,59.74
2018-06-13T07:50:04.561Z,59.32
2018-06-13T07:52:39.100Z,58.81
2018-06-13T07:55:11.897Z,58.81
2018-06-13T07:57:44.825Z,58.71
2018-06-13T08:00:17.473Z,58.74
2018-06-13T08:02:50.877Z,58.49
2018-06-13T08:05:24.050Z,57.88
2018-06-13T08:07:57.233Z,58.24
2018-06-13T08:10:31.228Z,57.63
2018-06-13T08:13:06.075Z,56.15
2018-06-13T08:15:40.112Z,55.87
2018-06-13T08:18:15.764Z,55.32
2018-06-13T08:20:52.351Z,54.50
2018-06-13T08:23:25.901Z,55.71
2018-06-13T08:26:00.694Z,55.76
2018-06-13T08:28:35.234Z,55.61
2018-06-13T08:31:10.337Z,54.06
2018-06-13T08:33:43.708Z,53.68
2018-06-13T08:36:17.473Z,54.65
2018-06-13T08:38:54.021Z,53.34
2018-06-13T08:41:29.861Z,53.21
2018-06-13T08:44:04.204Z,51.30
2018-06-13T08:46:38.171Z,51.33
2018-06-13T08:49:12.923Z,50.97
2018-06-13T08:51:47.043Z,51.46
2018-06-13T08:54:20.259Z,52.46
2018-06-13T08:56:52.692Z,52.00
2018-06-13T08:59:26.218Z,53.64
2018-06-13T09:02:00.115Z,53.56
2018-06-13T09:04:40.369Z,53.58
2018-06-13T09:07:14.949Z,54.58
2018-06-13T09:09:49.688Z,54.75
2018-06-13T09:12:23.617Z,55.10
2018-06-13T09:14:57.283Z,56.07
2018-06-13T09:17:31.942Z,56.37
2018-06-13T09:20:05.922Z,56.57
2018-06-13T09:22:38.318Z,56.60
2018-06-13T09:25:10.663Z,57.60
2018-06-13T09:27:46.730Z,57.21
2018-06-13T09:30:22.328Z,57.70
2018-06-13T09:32:54.968Z,58.84
2018-06-13T09:35:30.909Z,58.98
2018-06-13T09:38:03.858Z,59.11
2018-06-13T09:40:36.383Z,59.14
2018-06-13T09:43:09.614Z,58.35
2018-06-13T09:45:42.969Z,59.03
2018-06-13T09:48:15.504Z,58.07
2018-06-13T09:50:48.561Z,58.42
2018-06-13T09:53:21.128Z,58.42
2018-06-13T09:55:53.695Z,58.75
2018-06-13T09:59:12.839Z,57.12
2018-06-13T10:02:05.741Z,57.08
2018-06-13T10:04:49.241Z,56.46
2018-06-13T10:07:23.000Z,56.89
2018-06-13T10:09:57.544Z,57.27
2018-06-13T10:12:34.942Z,57.58
2018-06-13T10:15:17.977Z,57.03
2018-06-13T10:17:51.467Z,56.36
2018-06-13T10:20:25.154Z,55.45
2018-06-13T10:22:58.495Z,54.78
2018-06-13T10:25:31.524Z,53.12
2018-06-13T10:28:07.609Z,53.71
2018-06-13T10:30:40.192Z,53.31
2018-06-13T10:33:12.714Z,52.85
2018-06-13T10:35:45.629Z,51.27
2018-06-13T10:38:18.085Z,50.57
2018-06-13T10:40:52.539Z,51.36
2018-06-13T10:43:25.833Z,52.09
2018-06-13T10:46:01.132Z,53.01
2018-06-13T10:48:37.370Z,52.36
2018-06-13T10:51:10.822Z,54.11
2018-06-13T10:53:45.687Z,54.93
2018-06-13T10:56:23.292Z,53.87
2018-06-13T10:58:58.311Z,54.50
2018-06-13T11:01:34.844Z,55.54
2018-06-13T11:04:07.659Z,56.25
2018-06-13T11:06:42.363Z,56.79
2018-06-13T11:09:17.335Z,56.46
2018-06-13T11:11:50.258Z,56.83
2018-06-13T11:14:23.624Z,57.14
2018-06-13T11:16:57.803Z,57.59
2018-06-13T11:19:30.473Z,57.14
2018-06-13T11:22:04.934Z,56.92
2018-06-13T11:24:39.613Z,57.26
2018-06-13T11:27:13.229Z,56.05
2018-06-13T11:29:46.619Z,56.69
2018-06-13T11:32:20.609Z,57.21
2018-06-13T11:34:57.372Z,58.28
2018-06-13T11:37:29.903Z,59.14
2018-06-13T11:40:10.392Z,59.20
2018-06-13T11:42:46.923Z,59.47
2018-06-13T11:45:21.463Z,59.95
2018-06-13T11:47:55.207Z,60.04
2018-06-13T11:50:28.445Z,60.72
2018-06-13T11:53:03.832Z,60.71
2018-06-13T11:55:41.103Z,60.97
2018-06-13T11:58:14.372Z,61.09
2018-06-13T12:00:51.317Z,61.44
2018-06-13T12:03:33.807Z,60.60
2018-06-13T12:06:10.470Z,60.23
2018-06-13T12:08:49.608Z,59.75
2018-06-13T12:11:22.660Z,59.62
2018-06-13T12:13:57.932Z,59.69
2018-06-13T12:16:32.479Z,59.01
2018-06-13T12:19:05.050Z,58.18
2018-06-13T12:21:39.807Z,56.48
2018-06-13T12:24:13.353Z,54.47
2018-06-13T12:26:48.114Z,54.00
2018-06-13T12:29:21.900Z,52.95
2018-06-13T12:31:58.773Z,53.83
2018-06-13T12:34:32.365Z,54.17
2018-06-13T12:37:09.863Z,55.37
2018-06-13T12:39:50.520Z,56.61
2018-06-13T12:42:24.431Z,57.10
2018-06-13T12:45:00.770Z,57.39
2018-06-13T12:47:41.892Z,57.57
2018-06-13T12:50:19.596Z,58.36
2018-06-13T12:52:58.641Z,57.84
2018-06-13T12:55:39.984Z,57.56
2018-06-13T12:58:15.804Z,57.20
2018-06-13T13:00:51.395Z,55.44
2018-06-13T13:03:26.627Z,54.83
2018-06-13T13:06:03.582Z,53.00
2018-06-13T13:08:39.017Z,51.41
2018-06-13T13:11:11.791Z,50.14
2018-06-13T13:13:47.302Z,48.93
2018-06-13T13:16:20.831Z,47.94
2018-06-13T13:18:57.484Z,47.88
2018-06-13T13:21:33.624Z,47.25
2018-06-13T13:24:07.052Z,47.44
2018-06-13T13:26:41.734Z,48.68
2018-06-13T13:29:15.609Z,49.21
2018-06-13T13:31:51.821Z,50.22
2018-06-13T13:34:29.553Z,50.17
2018-06-13T13:37:04.326Z,50.14
2018-06-13T13:39:58.370Z,49.88
2018-06-13T13:42:32.310Z,49.74
2018-06-13T13:45:06.919Z,46.79
2018-06-13T13:47:42.226Z,46.70
2018-06-13T13:50:16.693Z,47.17
2018-06-13T13:52:55.802Z,47.76
2018-06-13T13:55:36.040Z,48.24
2018-06-13T13:58:19.128Z,48.28
2018-06-13T14:01:11.751Z,48.67
2018-06-13T14:03:46.312Z,48.28
2018-06-13T14:06:24.250Z,48.09
2018-06-13T14:09:00.339Z,48.58
2018-06-13T14:11:33.080Z,48.40
2018-06-13T14:14:07.693Z,46.48
2018-06-13T14:16:41.983Z,46.85
2018-06-13T14:19:15.266Z,45.94
2018-06-13T14:21:52.813Z,45.22
2018-06-13T14:24:26.711Z,45.30
2018-06-13T14:27:05.749Z,43.16
2018-06-13T14:29:40.051Z,43.18
2018-06-13T14:32:12.776Z,43.50
2018-06-13T14:34:46.526Z,42.42
2018-06-13T14:37:23.870Z,42.48
2018-06-13T14:39:59.483Z,42.50
2018-06-13T14:42:33.360Z,43.15
2018-06-13T14:45:07.416Z,43.19
2018-06-13T14:47:40.794Z,42.39
2018-06-13T14:50:18.824Z,43.02
2018-06-13T14:52:53.589Z,43.11
2018-06-13T14:55:45.569Z,43.38
2018-06-13T14:58:26.522Z,42.56
2018-06-13T15:01:27.253Z,42.65
2018-06-13T15:04:09.137Z,42.14
2018-06-13T15:06:46.304Z,42.47
2018-06-13T15:09:21.341Z,42.40
2018-06-13T15:11:56.557Z,43.73
2018-06-13T15:14:30.888Z,44.75
2018-06-13T15:17:04.391Z,45.46
2018-06-13T15:19:40.989Z,45.48
2018-06-13T15:22:16.945Z,46.25
2018-06-13T15:24:51.205Z,46.77
2018-06-13T15:27:25.628Z,46.54
2018-06-13T15:30:03.529Z,46.83
2018-06-13T15:32:36.998Z,47.44
2018-06-13T15:35:13.937Z,47.02
2018-06-13T15:37:48.895Z,45.76
2018-06-13T15:40:23.214Z,45.41
2018-06-13T15:43:04.502Z,46.11
2018-06-13T15:45:38.603Z,45.68
2018-06-13T15:48:14.877Z,45.43
2018-06-13T15:50:50.603Z,46.49
2018-06-13T15:53:24.786Z,46.14
2018-06-13T15:56:01.361Z,46.08
2018-06-13T15:58:34.080Z,45.64
2018-06-13T16:01:07.134Z,45.61
2018-06-13T16:03:42.607Z,46.29
2018-06-13T16:06:17.914Z,45.55
2018-06-13T16:08:52.719Z,44.90
2018-06-13T16:11:27.291Z,44.70
2018-06-13T16:14:02.454Z,44.66
2018-06-13T16:16:39.328Z,43.99
2018-06-13T16:19:13.053Z,43.25
2018-06-13T16:21:46.772Z,42.68
2018-06-13T16:24:21.704Z,41.40
2018-06-13T16:26:55.292Z,42.48
2018-06-13T16:29:32.126Z,42.87
2018-06-13T16:32:09.379Z,42.74
2018-06-13T16:34:49.173Z,43.24
2018-06-13T16:37:30.598Z,43.79
2018-06-13T16:40:06.842Z,42.98
2018-06-13T16:42:44.026Z,43.81
2018-06-13T16:45:18.682Z,44.26
2018-06-13T16:47:52.131Z,43.72
2018-06-13T16:51:45.112Z,44.12
2018-06-13T16:54:53.883Z,44.80
2018-06-13T16:57:33.366Z,44.63
2018-06-13T17:00:08.357Z,45.35
2018-06-13T17:02:50.593Z,45.37
2018-06-13T17:05:27.228Z,45.75
2018-06-13T17:08:01.535Z,46.46
2018-06-13T17:10:36.213Z,46.69
2018-06-13T17:13:10.013Z,44.51
2018-06-13T17:15:47.305Z,43.76
2018-06-13T17:18:22.988Z,43.88
2018-06-13T17:20:58.305Z,43.77
2018-06-13T17:23:37.740Z,43.88
2018-06-13T17:26:11.245Z,43.71
2018-06-13T17:28:59.080Z,44.38
2018-06-13T17:34:20.101Z,44.13
2018-06-13T17:36:58.286Z,44.68
2018-06-13T17:39:32.887Z,45.03
2018-06-13T17:42:09.070Z,45.31
2018-06-13T17:44:45.742Z,45.62
2018-06-13T17:47:19.552Z,46.76
2018-06-13T17:49:55.443Z,47.04
2018-06-13T17:52:32.459Z,47.33
2018-06-13T17:55:11.017Z,47.70
2018-06-13T17:57:47.561Z,47.74
2018-06-13T18:00:24.707Z,48.04
2018-06-13T18:03:01.850Z,48.36
2018-06-13T18:05:35.093Z,48.71
2018-06-13T18:08:11.822Z,49.26
2018-06-13T18:10:47.114Z,50.01
2018-06-13T18:13:23.075Z,50.39
2018-06-13T18:15:59.842Z,50.76
2018-06-13T18:18:37.073Z,50.19
2018-06-13T18:21:14.404Z,50.70
2018-06-13T18:23:52.360Z,49.98
2018-06-13T18:26:27.030Z,49.91
2018-06-13T18:29:02.452Z,50.02
2018-06-13T18:31:43.179Z,49.98
2018-06-13T18:34:16.996Z,48.96
2018-06-13T18:36:54.353Z,49.24
2018-06-13T18:39:27.647Z,49.85
2018-06-13T18:42:02.151Z,49.87
2018-06-13T18:44:37.023Z,49.87
2018-06-13T18:47:15.085Z,50.02
2018-06-13T18:49:50.921Z,50.38
2018-06-13T18:52:26.242Z,51.33
2018-06-13T18:55:08.298Z,51.57
2018-06-13T18:57:44.965Z,51.62
2018-06-13T19:00:21.366Z,52.15
2018-06-13T19:03:01.767Z,52.30
2018-06-13T19:05:41.321Z,52.45
2018-06-13T19:08:22.230Z,52.56
2018-06-13T19:11:01.818Z,52.92
2018-06-13T19:13:35.812Z,52.98
2018-06-13T19:16:10.712Z,53.49
2018-06-13T19:18:43.812Z,54.06
2018-06-13T19:21:23.177Z,54.80
2018-06-13T19:24:07.588Z,55.13
2018-06-13T19:26:44.526Z,55.64
2018-06-13T19:29:27.597Z,56.05
2018-06-13T19:32:05.848Z,57.05
2018-06-13T19:34:43.297Z,57.78
2018-06-13T19:37:18.898Z,58.95
2018-06-13T19:39:54.812Z,60.01
2018-06-13T19:42:29.798Z,60.73
2018-06-13T19:45:05.013Z,62.72
2018-06-13T19:47:54.881Z,64.17
2018-06-13T19:50:37.573Z,64.48
2018-06-13T19:53:18.028Z,65.56
2018-06-13T19:55:56.538Z,66.00
2018-06-13T19:58:33.105Z,67.16
2018-06-13T20:01:06.612Z,68.28
2018-06-13T20:03:44.963Z,68.39
2018-06-13T20:06:21.614Z,69.16
2018-06-13T20:08:56.094Z,70.29
2018-06-13T20:11:30.572Z,71.86
2018-06-13T20:14:17.723Z,70.99
2018-06-13T20:17:02.912Z,71.25
2018-06-13T20:19:40.866Z,71.75
2018-06-13T20:22:20.806Z,72.51
2018-06-13T20:27:54.410Z,73.48
2018-06-13T20:30:34.026Z,73.97
2018-06-13T20:33:06.868Z,75.02
2018-06-13T20:35:41.990Z,76.10
2018-06-13T20:38:46.700Z,76.45
2018-06-13T20:41:19.412Z,77.11
2018-06-13T20:43:53.528Z,78.32
2018-06-13T20:46:30.297Z,77.80
2018-06-13T20:49:05.097Z,77.93
2018-06-13T20:51:41.794Z,78.28
2018-06-13T20:54:31.791Z,79.64
2018-06-13T20:57:09.302Z,80.28
2018-06-13T20:59:53.193Z,81.34
2018-06-13T21:02:26.768Z,80.95
2018-06-13T21:05:00.380Z,81.08
2018-06-13T21:07:34.185Z,81.03
2018-06-13T21:10:11.298Z,82.54
2018-06-13T21:12:46.053Z,82.28
2018-06-13T21:15:20.062Z,82.29
2018-06-13T21:17:55.918Z,81.77
2018-06-13T21:20:30.312Z,82.07
2018-06-13T21:23:05.994Z,82.45
2018-06-13T21:25:39.796Z,82.65
2018-06-13T21:28:14.414Z,82.43
2018-06-13T21:30:50.613Z,82.68
2018-06-13T21:33:27.270Z,83.19
2018-06-13T21:36:03.770Z,83.55
2018-06-13T21:38:39.102Z,83.76
2018-06-13T21:41:39.095Z,83.75
2018-06-13T21:44:12.899Z,84.01
2018-06-13T21:46:48.580Z,84.49
2018-06-13T21:49:23.426Z,84.71
2018-06-13T21:52:01.009Z,84.61
2018-06-13T21:54:34.152Z,84.81
2018-06-13T21:57:08.068Z,84.92
2018-06-13T21:59:40.645Z,85.26
2018-06-13T22:02:13.124Z,85.59
2018-06-13T22:04:46.832Z,85.80
2018-06-13T22:07:20.360Z,85.63
2018-06-13T22:09:56.400Z,85.40
2018-06-13T22:12:31.265Z,85.56
2018-06-13T22:15:13.655Z,85.27
2018-06-13T22:17:47.516Z,85.72
2018-06-13T22:20:21.595Z,86.02
2018-06-13T22:22:59.181Z,86.21
2018-06-13T22:25:31.835Z,86.37
2018-06-13T22:28:05.357Z,86.78
2018-06-13T22:30:38.933Z,86.41
2018-06-13T22:33:13.674Z,86.72
2018-06-13T22:35:46.988Z,86.64
2018-06-13T22:38:23.487Z,86.78
2018-06-13T22:41:00.173Z,87.09
2018-06-13T22:43:34.721Z,87.37
2018-06-13T22:46:09.561Z,87.79
2018-06-13T22:48:46.150Z,87.75
2018-06-13T22:51:25.097Z,87.54
2018-06-13T22:53:59.911Z,87.68
2018-06-13T22:56:33.938Z,87.58
2018-06-13T22:59:07.033Z,87.38
2018-06-13T23:01:40.410Z,87.38
2018-06-13T23:04:14.051Z,87.45
2018-06-13T23:06:47.094Z,87.81
2018-06-13T23:09:21.186Z,87.86
2018-06-13T23:11:57.456Z,87.73
2018-06-13T23:14:31.922Z,87.69
2018-06-13T23:17:07.521Z,87.94
2018-06-13T23:19:40.212Z,88.08
2018-06-13T23:22:14.591Z,88.68
2018-06-13T23:24:51.312Z,88.65
2018-06-13T23:27:25.277Z,88.41
2018-06-13T23:29:58.170Z,88.16
2018-06-13T23:32:33.333Z,88.30
2018-06-13T23:35:06.424Z,88.26
2018-06-13T23:37:41.031Z,88.50
2018-06-13T23:40:15.570Z,88.76
2018-06-13T23:42:50.817Z,88.45
2018-06-13T23:45:24.352Z,88.81
2018-06-13T23:47:57.775Z,89.16
2018-06-13T23:50:31.708Z,89.23
2018-06-13T23:53:06.430Z,89.19
2018-06-13T23:55:40.385Z,89.06
2018-06-13T23:58:14.608Z,89.17
